sensor_id;sensor_type;location;lat;lon;timestamp;P1;durP1;ratioP1;P2;durP2;ratioP2
8909;SDS011;4490;49.072;8.804;2022-07-04T00:00:45;3.58;;;2.15;;
8909;SDS011;4490;49.072;8.804;2022-07-04T00:03:11;2.40;;;1.98;;
8909;SDS011;4490;49.072;8.804;2022-07-04T00:05:36;6.22;;;2.10;;
8909;SDS011;4490;49.072;8.804;2022-07-04T00:08:02;2.83;;;2.25;;
8909;SDS011;4490;49.072;8.804;2022-07-04T00:10:28;2.47;;;2.10;;
8909;SDS011;4490;49.072;8.804;2022-07-04T00:12:53;3.47;;;2.08;;
8909;SDS011;4490;49.072;8.804;2022-07-04T00:15:19;4.07;;;2.17;;
8909;SDS011;4490;49.072;8.804;2022-07-04T00:17:45;4.30;;;2.30;;
8909;SDS011;4490;49.072;8.804;2022-07-04T00:20:11;2.17;;;1.90;;
8909;SDS011;4490;49.072;8.804;2022-07-04T00:22:37;2.00;;;1.80;;
8909;SDS011;4490;49.072;8.804;2022-07-04T00:25:03;1.90;;;1.80;;
8909;SDS011;4490;49.072;8.804;2022-07-04T00:27:29;3.83;;;2.03;;
8909;SDS011;4490;49.072;8.804;2022-07-04T00:29:55;4.35;;;2.20;;
8909;SDS011;4490;49.072;8.804;2022-07-04T00:32:20;2.83;;;2.00;;
8909;SDS011;4490;49.072;8.804;2022-07-04T00:34:46;3.22;;;2.13;;
8909;SDS011;4490;49.072;8.804;2022-07-04T00:37:12;3.05;;;1.83;;
8909;SDS011;4490;49.072;8.804;2022-07-04T00:39:37;2.28;;;2.00;;
8909;SDS011;4490;49.072;8.804;2022-07-04T00:42:03;2.67;;;2.17;;
8909;SDS011;4490;49.072;8.804;2022-07-04T00:44:30;4.05;;;2.10;;
8909;SDS011;4490;49.072;8.804;2022-07-04T00:46:57;5.47;;;2.25;;
8909;SDS011;4490;49.072;8.804;2022-07-04T00:49:22;3.70;;;2.25;;
8909;SDS011;4490;49.072;8.804;2022-07-04T00:51:48;2.10;;;1.90;;
8909;SDS011;4490;49.072;8.804;2022-07-04T00:54:15;3.65;;;2.00;;
8909;SDS011;4490;49.072;8.804;2022-07-04T00:56:43;2.88;;;2.10;;
8909;SDS011;4490;49.072;8.804;2022-07-04T00:59:09;2.92;;;2.53;;
8909;SDS011;4490;49.072;8.804;2022-07-04T01:01:36;4.22;;;2.00;;
8909;SDS011;4490;49.072;8.804;2022-07-04T01:04:03;4.25;;;2.45;;
8909;SDS011;4490;49.072;8.804;2022-07-04T01:06:30;3.45;;;2.13;;
8909;SDS011;4490;49.072;8.804;2022-07-04T01:08:56;5.43;;;2.45;;
8909;SDS011;4490;49.072;8.804;2022-07-04T01:11:22;4.38;;;2.10;;
8909;SDS011;4490;49.072;8.804;2022-07-04T01:13:48;5.07;;;2.28;;
8909;SDS011;4490;49.072;8.804;2022-07-04T01:16:14;3.20;;;1.85;;
8909;SDS011;4490;49.072;8.804;2022-07-04T01:18:39;4.80;;;2.03;;
8909;SDS011;4490;49.072;8.804;2022-07-04T01:21:06;2.20;;;1.88;;
8909;SDS011;4490;49.072;8.804;2022-07-04T01:23:32;3.00;;;2.27;;
8909;SDS011;4490;49.072;8.804;2022-07-04T01:26:02;3.53;;;2.10;;
8909;SDS011;4490;49.072;8.804;2022-07-04T01:28:28;3.67;;;2.33;;
8909;SDS011;4490;49.072;8.804;2022-07-04T01:30:54;3.55;;;2.13;;
8909;SDS011;4490;49.072;8.804;2022-07-04T01:33:19;4.70;;;2.20;;
8909;SDS011;4490;49.072;8.804;2022-07-04T01:35:45;2.58;;;1.88;;
8909;SDS011;4490;49.072;8.804;2022-07-04T01:38:11;4.50;;;2.42;;
8909;SDS011;4490;49.072;8.804;2022-07-04T01:40:37;3.27;;;2.20;;
8909;SDS011;4490;49.072;8.804;2022-07-04T01:43:03;3.85;;;2.40;;
8909;SDS011;4490;49.072;8.804;2022-07-04T01:45:29;3.05;;;2.33;;
8909;SDS011;4490;49.072;8.804;2022-07-04T01:47:55;4.30;;;2.30;;
8909;SDS011;4490;49.072;8.804;2022-07-04T01:50:21;3.15;;;2.40;;
8909;SDS011;4490;49.072;8.804;2022-07-04T01:52:47;4.10;;;2.70;;
8909;SDS011;4490;49.072;8.804;2022-07-04T01:55:13;3.38;;;2.72;;
8909;SDS011;4490;49.072;8.804;2022-07-04T01:57:39;2.78;;;2.40;;
8909;SDS011;4490;49.072;8.804;2022-07-04T02:00:05;4.13;;;2.67;;
8909;SDS011;4490;49.072;8.804;2022-07-04T02:02:51;5.55;;;2.80;;
8909;SDS011;4490;49.072;8.804;2022-07-04T02:05:17;7.17;;;2.93;;
8909;SDS011;4490;49.072;8.804;2022-07-04T02:07:43;3.13;;;2.63;;
8909;SDS011;4490;49.072;8.804;2022-07-04T02:10:09;5.03;;;2.50;;
8909;SDS011;4490;49.072;8.804;2022-07-04T02:12:35;2.60;;;2.40;;
8909;SDS011;4490;49.072;8.804;2022-07-04T02:15:19;3.50;;;2.37;;
8909;SDS011;4490;49.072;8.804;2022-07-04T02:17:45;3.73;;;2.43;;
8909;SDS011;4490;49.072;8.804;2022-07-04T02:20:11;5.30;;;2.40;;
8909;SDS011;4490;49.072;8.804;2022-07-04T02:22:37;2.70;;;2.23;;
8909;SDS011;4490;49.072;8.804;2022-07-04T02:25:02;3.23;;;2.50;;
8909;SDS011;4490;49.072;8.804;2022-07-04T02:27:28;2.70;;;2.47;;
8909;SDS011;4490;49.072;8.804;2022-07-04T02:29:54;9.33;;;2.40;;
8909;SDS011;4490;49.072;8.804;2022-07-04T02:32:20;3.63;;;2.60;;
8909;SDS011;4490;49.072;8.804;2022-07-04T02:34:45;3.97;;;2.73;;
8909;SDS011;4490;49.072;8.804;2022-07-04T02:37:11;3.60;;;2.67;;
8909;SDS011;4490;49.072;8.804;2022-07-04T02:39:37;5.00;;;2.50;;
8909;SDS011;4490;49.072;8.804;2022-07-04T02:42:03;2.67;;;2.40;;
8909;SDS011;4490;49.072;8.804;2022-07-04T02:44:29;3.13;;;2.33;;
8909;SDS011;4490;49.072;8.804;2022-07-04T02:46:55;2.97;;;2.47;;
8909;SDS011;4490;49.072;8.804;2022-07-04T02:49:21;3.20;;;2.50;;
8909;SDS011;4490;49.072;8.804;2022-07-04T02:51:46;4.53;;;2.73;;
8909;SDS011;4490;49.072;8.804;2022-07-04T02:54:12;3.00;;;2.30;;
8909;SDS011;4490;49.072;8.804;2022-07-04T02:56:38;2.47;;;2.23;;
8909;SDS011;4490;49.072;8.804;2022-07-04T02:59:04;3.90;;;2.10;;
8909;SDS011;4490;49.072;8.804;2022-07-04T03:01:29;3.97;;;2.60;;
8909;SDS011;4490;49.072;8.804;2022-07-04T03:03:56;3.10;;;2.63;;
8909;SDS011;4490;49.072;8.804;2022-07-04T03:06:21;4.77;;;2.30;;
8909;SDS011;4490;49.072;8.804;2022-07-04T03:08:47;5.67;;;3.00;;
8909;SDS011;4490;49.072;8.804;2022-07-04T03:11:12;4.07;;;2.27;;
8909;SDS011;4490;49.072;8.804;2022-07-04T03:13:39;2.87;;;2.17;;
8909;SDS011;4490;49.072;8.804;2022-07-04T03:16:05;4.43;;;2.20;;
8909;SDS011;4490;49.072;8.804;2022-07-04T03:18:31;3.17;;;2.13;;
8909;SDS011;4490;49.072;8.804;2022-07-04T03:20:56;3.87;;;2.40;;
8909;SDS011;4490;49.072;8.804;2022-07-04T03:23:22;4.63;;;2.40;;
8909;SDS011;4490;49.072;8.804;2022-07-04T03:25:48;3.40;;;2.63;;
8909;SDS011;4490;49.072;8.804;2022-07-04T03:28:13;2.77;;;2.43;;
8909;SDS011;4490;49.072;8.804;2022-07-04T03:30:39;2.93;;;2.33;;
8909;SDS011;4490;49.072;8.804;2022-07-04T03:33:05;3.37;;;2.40;;
8909;SDS011;4490;49.072;8.804;2022-07-04T03:35:30;5.23;;;2.67;;
8909;SDS011;4490;49.072;8.804;2022-07-04T03:37:56;3.50;;;2.47;;
8909;SDS011;4490;49.072;8.804;2022-07-04T03:40:22;3.10;;;2.37;;
8909;SDS011;4490;49.072;8.804;2022-07-04T03:42:48;2.63;;;2.43;;
8909;SDS011;4490;49.072;8.804;2022-07-04T03:45:14;2.97;;;2.10;;
8909;SDS011;4490;49.072;8.804;2022-07-04T03:47:39;4.17;;;2.63;;
8909;SDS011;4490;49.072;8.804;2022-07-04T03:50:05;3.07;;;2.23;;
8909;SDS011;4490;49.072;8.804;2022-07-04T03:52:31;3.23;;;2.20;;
8909;SDS011;4490;49.072;8.804;2022-07-04T03:54:58;3.47;;;2.50;;
8909;SDS011;4490;49.072;8.804;2022-07-04T03:57:23;3.30;;;1.93;;
8909;SDS011;4490;49.072;8.804;2022-07-04T03:59:49;3.03;;;2.40;;
8909;SDS011;4490;49.072;8.804;2022-07-04T04:02:15;2.73;;;2.07;;
8909;SDS011;4490;49.072;8.804;2022-07-04T04:04:41;3.07;;;2.20;;
8909;SDS011;4490;49.072;8.804;2022-07-04T04:07:25;4.60;;;2.40;;
8909;SDS011;4490;49.072;8.804;2022-07-04T04:09:51;2.43;;;2.20;;
8909;SDS011;4490;49.072;8.804;2022-07-04T04:12:16;3.70;;;2.40;;
8909;SDS011;4490;49.072;8.804;2022-07-04T04:14:42;3.70;;;2.30;;
8909;SDS011;4490;49.072;8.804;2022-07-04T04:17:08;2.87;;;2.10;;
8909;SDS011;4490;49.072;8.804;2022-07-04T04:19:33;6.13;;;2.43;;
8909;SDS011;4490;49.072;8.804;2022-07-04T04:21:59;3.27;;;2.33;;
8909;SDS011;4490;49.072;8.804;2022-07-04T04:24:25;4.30;;;2.30;;
8909;SDS011;4490;49.072;8.804;2022-07-04T04:26:50;2.70;;;2.13;;
8909;SDS011;4490;49.072;8.804;2022-07-04T04:29:16;3.07;;;2.10;;
8909;SDS011;4490;49.072;8.804;2022-07-04T04:31:41;4.13;;;2.20;;
8909;SDS011;4490;49.072;8.804;2022-07-04T04:34:07;5.40;;;2.40;;
8909;SDS011;4490;49.072;8.804;2022-07-04T04:36:33;2.57;;;1.90;;
8909;SDS011;4490;49.072;8.804;2022-07-04T04:38:58;3.97;;;2.23;;
8909;SDS011;4490;49.072;8.804;2022-07-04T04:41:24;3.80;;;2.00;;
8909;SDS011;4490;49.072;8.804;2022-07-04T04:43:50;3.43;;;1.90;;
8909;SDS011;4490;49.072;8.804;2022-07-04T04:46:15;3.13;;;1.90;;
8909;SDS011;4490;49.072;8.804;2022-07-04T04:48:41;2.93;;;1.90;;
8909;SDS011;4490;49.072;8.804;2022-07-04T04:51:06;6.00;;;2.00;;
8909;SDS011;4490;49.072;8.804;2022-07-04T04:53:32;2.87;;;1.90;;
8909;SDS011;4490;49.072;8.804;2022-07-04T04:55:58;2.33;;;1.67;;
8909;SDS011;4490;49.072;8.804;2022-07-04T04:58:23;4.63;;;2.03;;
8909;SDS011;4490;49.072;8.804;2022-07-04T05:00:49;3.07;;;1.60;;
8909;SDS011;4490;49.072;8.804;2022-07-04T05:03:18;4.63;;;2.00;;
8909;SDS011;4490;49.072;8.804;2022-07-04T05:05:44;3.20;;;1.70;;
8909;SDS011;4490;49.072;8.804;2022-07-04T05:08:10;2.53;;;1.70;;
8909;SDS011;4490;49.072;8.804;2022-07-04T05:10:37;2.83;;;1.70;;
8909;SDS011;4490;49.072;8.804;2022-07-04T05:13:04;3.20;;;1.70;;
8909;SDS011;4490;49.072;8.804;2022-07-04T05:15:30;2.70;;;1.80;;
8909;SDS011;4490;49.072;8.804;2022-07-04T05:17:56;2.10;;;1.63;;
8909;SDS011;4490;49.072;8.804;2022-07-04T05:20:21;2.43;;;1.80;;
8909;SDS011;4490;49.072;8.804;2022-07-04T05:22:47;4.33;;;1.90;;
8909;SDS011;4490;49.072;8.804;2022-07-04T05:25:12;2.47;;;1.73;;
8909;SDS011;4490;49.072;8.804;2022-07-04T05:27:38;2.50;;;1.83;;
8909;SDS011;4490;49.072;8.804;2022-07-04T05:30:05;2.93;;;1.87;;
8909;SDS011;4490;49.072;8.804;2022-07-04T05:32:31;2.47;;;1.97;;
8909;SDS011;4490;49.072;8.804;2022-07-04T05:34:56;5.83;;;1.97;;
8909;SDS011;4490;49.072;8.804;2022-07-04T05:37:23;2.80;;;1.93;;
8909;SDS011;4490;49.072;8.804;2022-07-04T05:39:48;4.83;;;2.20;;
8909;SDS011;4490;49.072;8.804;2022-07-04T05:42:14;8.07;;;2.00;;
8909;SDS011;4490;49.072;8.804;2022-07-04T05:44:40;4.23;;;1.80;;
8909;SDS011;4490;49.072;8.804;2022-07-04T05:47:05;2.57;;;2.07;;
8909;SDS011;4490;49.072;8.804;2022-07-04T05:49:31;3.30;;;1.80;;
8909;SDS011;4490;49.072;8.804;2022-07-04T05:51:57;4.57;;;1.90;;
8909;SDS011;4490;49.072;8.804;2022-07-04T05:54:22;4.00;;;1.97;;
8909;SDS011;4490;49.072;8.804;2022-07-04T05:56:48;2.80;;;1.93;;
8909;SDS011;4490;49.072;8.804;2022-07-04T05:59:14;4.23;;;1.90;;
8909;SDS011;4490;49.072;8.804;2022-07-04T06:01:40;4.70;;;2.20;;
8909;SDS011;4490;49.072;8.804;2022-07-04T06:04:06;3.20;;;1.83;;
8909;SDS011;4490;49.072;8.804;2022-07-04T06:06:31;5.10;;;2.10;;
8909;SDS011;4490;49.072;8.804;2022-07-04T06:08:59;3.40;;;1.80;;
8909;SDS011;4490;49.072;8.804;2022-07-04T06:11:24;4.63;;;2.10;;
8909;SDS011;4490;49.072;8.804;2022-07-04T06:13:50;3.27;;;1.80;;
8909;SDS011;4490;49.072;8.804;2022-07-04T06:16:16;3.27;;;2.30;;
8909;SDS011;4490;49.072;8.804;2022-07-04T06:18:42;3.50;;;2.20;;
8909;SDS011;4490;49.072;8.804;2022-07-04T06:21:08;2.60;;;1.88;;
8909;SDS011;4490;49.072;8.804;2022-07-04T06:23:34;3.35;;;2.25;;
8909;SDS011;4490;49.072;8.804;2022-07-04T06:26:00;3.33;;;2.08;;
8909;SDS011;4490;49.072;8.804;2022-07-04T06:28:26;4.93;;;2.15;;
8909;SDS011;4490;49.072;8.804;2022-07-04T06:30:52;2.72;;;1.73;;
8909;SDS011;4490;49.072;8.804;2022-07-04T06:33:18;3.30;;;1.80;;
8909;SDS011;4490;49.072;8.804;2022-07-04T06:35:44;2.35;;;2.00;;
8909;SDS011;4490;49.072;8.804;2022-07-04T06:38:11;3.47;;;2.20;;
8909;SDS011;4490;49.072;8.804;2022-07-04T06:40:38;4.97;;;2.38;;
8909;SDS011;4490;49.072;8.804;2022-07-04T06:43:04;6.05;;;2.20;;
8909;SDS011;4490;49.072;8.804;2022-07-04T06:45:30;3.63;;;2.03;;
8909;SDS011;4490;49.072;8.804;2022-07-04T06:47:56;4.10;;;2.00;;
8909;SDS011;4490;49.072;8.804;2022-07-04T06:50:22;4.18;;;2.25;;
8909;SDS011;4490;49.072;8.804;2022-07-04T06:52:47;2.72;;;2.17;;
8909;SDS011;4490;49.072;8.804;2022-07-04T06:55:13;5.85;;;2.35;;
8909;SDS011;4490;49.072;8.804;2022-07-04T06:57:39;2.10;;;1.90;;
8909;SDS011;4490;49.072;8.804;2022-07-04T07:00:05;4.22;;;2.00;;
8909;SDS011;4490;49.072;8.804;2022-07-04T07:02:35;2.33;;;1.80;;
8909;SDS011;4490;49.072;8.804;2022-07-04T07:05:03;2.10;;;1.90;;
8909;SDS011;4490;49.072;8.804;2022-07-04T07:07:29;3.28;;;1.95;;
8909;SDS011;4490;49.072;8.804;2022-07-04T07:09:55;2.75;;;1.60;;
8909;SDS011;4490;49.072;8.804;2022-07-04T07:12:21;3.58;;;1.92;;
8909;SDS011;4490;49.072;8.804;2022-07-04T07:14:48;3.78;;;2.00;;
8909;SDS011;4490;49.072;8.804;2022-07-04T07:17:15;3.17;;;2.00;;
8909;SDS011;4490;49.072;8.804;2022-07-04T07:19:42;2.63;;;2.00;;
8909;SDS011;4490;49.072;8.804;2022-07-04T07:22:09;2.97;;;1.80;;
8909;SDS011;4490;49.072;8.804;2022-07-04T07:24:36;2.28;;;1.88;;
8909;SDS011;4490;49.072;8.804;2022-07-04T07:27:01;2.53;;;1.77;;
8909;SDS011;4490;49.072;8.804;2022-07-04T07:29:27;2.47;;;2.00;;
8909;SDS011;4490;49.072;8.804;2022-07-04T07:31:53;3.10;;;2.17;;
8909;SDS011;4490;49.072;8.804;2022-07-04T07:34:19;3.95;;;1.90;;
8909;SDS011;4490;49.072;8.804;2022-07-04T07:36:45;5.30;;;2.20;;
8909;SDS011;4490;49.072;8.804;2022-07-04T07:39:10;3.60;;;2.03;;
8909;SDS011;4490;49.072;8.804;2022-07-04T07:41:36;3.10;;;2.40;;
8909;SDS011;4490;49.072;8.804;2022-07-04T07:44:01;2.00;;;1.80;;
8909;SDS011;4490;49.072;8.804;2022-07-04T07:46:27;4.30;;;1.95;;
8909;SDS011;4490;49.072;8.804;2022-07-04T07:48:53;5.35;;;2.08;;
8909;SDS011;4490;49.072;8.804;2022-07-04T07:51:18;4.13;;;1.80;;
8909;SDS011;4490;49.072;8.804;2022-07-04T07:53:44;2.40;;;2.20;;
8909;SDS011;4490;49.072;8.804;2022-07-04T07:56:10;4.22;;;2.00;;
8909;SDS011;4490;49.072;8.804;2022-07-04T07:58:35;5.15;;;2.10;;
8909;SDS011;4490;49.072;8.804;2022-07-04T08:01:01;3.72;;;2.13;;
8909;SDS011;4490;49.072;8.804;2022-07-04T08:03:27;3.45;;;2.20;;
8909;SDS011;4490;49.072;8.804;2022-07-04T08:06:11;2.25;;;1.98;;
8909;SDS011;4490;49.072;8.804;2022-07-04T08:08:38;2.10;;;2.00;;
8909;SDS011;4490;49.072;8.804;2022-07-04T08:11:04;2.75;;;1.95;;
8909;SDS011;4490;49.072;8.804;2022-07-04T08:13:30;3.97;;;2.30;;
8909;SDS011;4490;49.072;8.804;2022-07-04T08:15:55;2.92;;;2.03;;
8909;SDS011;4490;49.072;8.804;2022-07-04T08:18:21;4.13;;;2.17;;
8909;SDS011;4490;49.072;8.804;2022-07-04T08:20:48;8.13;;;2.40;;
8909;SDS011;4490;49.072;8.804;2022-07-04T08:23:14;3.88;;;2.30;;
8909;SDS011;4490;49.072;8.804;2022-07-04T08:25:40;5.25;;;2.00;;
8909;SDS011;4490;49.072;8.804;2022-07-04T08:28:05;8.23;;;2.35;;
8909;SDS011;4490;49.072;8.804;2022-07-04T08:30:31;4.55;;;2.42;;
8909;SDS011;4490;49.072;8.804;2022-07-04T08:32:57;3.22;;;1.90;;
8909;SDS011;4490;49.072;8.804;2022-07-04T08:35:22;4.35;;;2.10;;
8909;SDS011;4490;49.072;8.804;2022-07-04T08:37:48;3.50;;;1.90;;
8909;SDS011;4490;49.072;8.804;2022-07-04T08:40:18;2.88;;;2.10;;
8909;SDS011;4490;49.072;8.804;2022-07-04T08:42:48;3.90;;;2.40;;
8909;SDS011;4490;49.072;8.804;2022-07-04T08:45:15;2.55;;;2.30;;
8909;SDS011;4490;49.072;8.804;2022-07-04T08:47:42;4.30;;;2.30;;
8909;SDS011;4490;49.072;8.804;2022-07-04T08:50:10;3.03;;;2.25;;
8909;SDS011;4490;49.072;8.804;2022-07-04T08:52:42;3.28;;;2.30;;
8909;SDS011;4490;49.072;8.804;2022-07-04T08:55:12;2.80;;;2.10;;
8909;SDS011;4490;49.072;8.804;2022-07-04T08:57:56;3.97;;;2.35;;
8909;SDS011;4490;49.072;8.804;2022-07-04T09:00:41;3.47;;;2.30;;
8909;SDS011;4490;49.072;8.804;2022-07-04T09:03:07;4.40;;;2.30;;
8909;SDS011;4490;49.072;8.804;2022-07-04T09:05:34;3.13;;;2.20;;
8909;SDS011;4490;49.072;8.804;2022-07-04T09:08:00;3.28;;;2.03;;
8909;SDS011;4490;49.072;8.804;2022-07-04T09:10:27;3.17;;;2.10;;
8909;SDS011;4490;49.072;8.804;2022-07-04T09:12:53;4.95;;;2.17;;
8909;SDS011;4490;49.072;8.804;2022-07-04T09:15:19;1.88;;;1.73;;
8909;SDS011;4490;49.072;8.804;2022-07-04T09:17:46;4.82;;;1.95;;
8909;SDS011;4490;49.072;8.804;2022-07-04T09:20:19;2.28;;;2.05;;
8909;SDS011;4490;49.072;8.804;2022-07-04T09:22:47;5.28;;;1.95;;
8909;SDS011;4490;49.072;8.804;2022-07-04T09:25:14;4.18;;;2.05;;
8909;SDS011;4490;49.072;8.804;2022-07-04T09:27:42;2.47;;;1.95;;
8909;SDS011;4490;49.072;8.804;2022-07-04T09:30:10;2.75;;;1.95;;
8909;SDS011;4490;49.072;8.804;2022-07-04T09:32:38;5.97;;;1.80;;
8909;SDS011;4490;49.072;8.804;2022-07-04T09:35:10;3.65;;;2.38;;
8909;SDS011;4490;49.072;8.804;2022-07-04T09:37:43;1.90;;;1.80;;
8909;SDS011;4490;49.072;8.804;2022-07-04T09:40:30;3.50;;;2.17;;
8909;SDS011;4490;49.072;8.804;2022-07-04T09:43:20;4.10;;;2.22;;
8909;SDS011;4490;49.072;8.804;2022-07-04T09:45:56;2.78;;;2.10;;
8909;SDS011;4490;49.072;8.804;2022-07-04T09:48:23;2.80;;;2.20;;
8909;SDS011;4490;49.072;8.804;2022-07-04T09:50:50;2.95;;;2.00;;
8909;SDS011;4490;49.072;8.804;2022-07-04T09:53:15;3.35;;;2.00;;
8909;SDS011;4490;49.072;8.804;2022-07-04T09:55:41;2.55;;;2.00;;
8909;SDS011;4490;49.072;8.804;2022-07-04T09:58:11;2.45;;;1.85;;
8909;SDS011;4490;49.072;8.804;2022-07-04T10:05:45;2.58;;;1.90;;
8909;SDS011;4490;49.072;8.804;2022-07-04T10:08:12;2.30;;;1.90;;
8909;SDS011;4490;49.072;8.804;2022-07-04T10:10:39;2.63;;;2.00;;
8909;SDS011;4490;49.072;8.804;2022-07-04T10:13:11;3.65;;;2.10;;
8909;SDS011;4490;49.072;8.804;2022-07-04T10:15:38;2.00;;;1.90;;
8909;SDS011;4490;49.072;8.804;2022-07-04T10:18:06;2.85;;;1.63;;
8909;SDS011;4490;49.072;8.804;2022-07-04T10:20:33;2.72;;;1.73;;
8909;SDS011;4490;49.072;8.804;2022-07-04T10:22:58;3.83;;;2.03;;
8909;SDS011;4490;49.072;8.804;2022-07-04T10:25:24;3.20;;;2.00;;
8909;SDS011;4490;49.072;8.804;2022-07-04T10:27:50;2.53;;;1.80;;
8909;SDS011;4490;49.072;8.804;2022-07-04T10:30:23;2.28;;;2.10;;
8909;SDS011;4490;49.072;8.804;2022-07-04T10:32:51;3.05;;;2.10;;
8909;SDS011;4490;49.072;8.804;2022-07-04T10:35:19;6.15;;;2.10;;
8909;SDS011;4490;49.072;8.804;2022-07-04T10:38:26;4.80;;;2.00;;
8909;SDS011;4490;49.072;8.804;2022-07-04T10:40:54;2.40;;;2.10;;
8909;SDS011;4490;49.072;8.804;2022-07-04T10:48:35;3.53;;;2.15;;
8909;SDS011;4490;49.072;8.804;2022-07-04T10:51:02;4.15;;;1.80;;
8909;SDS011;4490;49.072;8.804;2022-07-04T10:53:31;3.70;;;1.90;;
8909;SDS011;4490;49.072;8.804;2022-07-04T10:58:43;2.78;;;1.70;;
8909;SDS011;4490;49.072;8.804;2022-07-04T11:01:12;2.47;;;1.92;;
8909;SDS011;4490;49.072;8.804;2022-07-04T11:17:11;2.63;;;1.80;;
8909;SDS011;4490;49.072;8.804;2022-07-04T11:19:39;2.20;;;2.00;;
8909;SDS011;4490;49.072;8.804;2022-07-04T11:22:07;2.55;;;1.92;;
8909;SDS011;4490;49.072;8.804;2022-07-04T11:24:35;3.60;;;2.00;;
8909;SDS011;4490;49.072;8.804;2022-07-04T11:27:02;3.75;;;1.77;;
8909;SDS011;4490;49.072;8.804;2022-07-04T11:29:29;2.33;;;1.90;;
8909;SDS011;4490;49.072;8.804;2022-07-04T11:31:55;3.03;;;2.30;;
8909;SDS011;4490;49.072;8.804;2022-07-04T11:34:21;4.13;;;2.20;;
8909;SDS011;4490;49.072;8.804;2022-07-04T11:36:49;2.45;;;1.98;;
8909;SDS011;4490;49.072;8.804;2022-07-04T11:39:17;2.17;;;1.95;;
8909;SDS011;4490;49.072;8.804;2022-07-04T11:41:47;3.60;;;2.15;;
8909;SDS011;4490;49.072;8.804;2022-07-04T11:44:36;3.03;;;2.22;;
8909;SDS011;4490;49.072;8.804;2022-07-04T11:47:37;3.00;;;1.70;;
8909;SDS011;4490;49.072;8.804;2022-07-04T11:50:08;2.70;;;2.17;;
8909;SDS011;4490;49.072;8.804;2022-07-04T11:55:08;7.00;;;2.00;;
8909;SDS011;4490;49.072;8.804;2022-07-04T12:00:06;3.00;;;2.03;;
8909;SDS011;4490;49.072;8.804;2022-07-04T12:02:36;3.42;;;1.98;;
8909;SDS011;4490;49.072;8.804;2022-07-04T12:05:03;2.80;;;2.10;;
8909;SDS011;4490;49.072;8.804;2022-07-04T12:07:31;4.38;;;2.10;;
8909;SDS011;4490;49.072;8.804;2022-07-04T12:12:57;2.85;;;2.05;;
8909;SDS011;4490;49.072;8.804;2022-07-04T12:15:25;2.35;;;2.10;;
8909;SDS011;4490;49.072;8.804;2022-07-04T12:18:01;4.43;;;2.10;;
8909;SDS011;4490;49.072;8.804;2022-07-04T12:20:26;5.32;;;1.95;;
8909;SDS011;4490;49.072;8.804;2022-07-04T12:22:54;2.53;;;1.85;;
8909;SDS011;4490;49.072;8.804;2022-07-04T12:25:25;4.00;;;2.42;;
8909;SDS011;4490;49.072;8.804;2022-07-04T12:28:00;2.88;;;1.98;;
8909;SDS011;4490;49.072;8.804;2022-07-04T12:30:31;6.70;;;2.28;;
8909;SDS011;4490;49.072;8.804;2022-07-04T12:33:13;3.88;;;1.90;;
8909;SDS011;4490;49.072;8.804;2022-07-04T12:35:43;3.20;;;1.92;;
8909;SDS011;4490;49.072;8.804;2022-07-04T12:40:52;5.20;;;1.90;;
8909;SDS011;4490;49.072;8.804;2022-07-04T12:46:14;1.70;;;1.60;;
8909;SDS011;4490;49.072;8.804;2022-07-04T12:48:49;4.55;;;2.03;;
8909;SDS011;4490;49.072;8.804;2022-07-04T12:51:20;2.97;;;2.00;;
8909;SDS011;4490;49.072;8.804;2022-07-04T12:53:48;3.35;;;1.90;;
8909;SDS011;4490;49.072;8.804;2022-07-04T12:56:27;10.13;;;1.90;;
8909;SDS011;4490;49.072;8.804;2022-07-04T12:59:06;3.00;;;1.70;;
8909;SDS011;4490;49.072;8.804;2022-07-04T13:01:32;2.35;;;1.80;;
8909;SDS011;4490;49.072;8.804;2022-07-04T13:03:59;3.42;;;1.80;;
8909;SDS011;4490;49.072;8.804;2022-07-04T13:06:25;2.28;;;1.80;;
8909;SDS011;4490;49.072;8.804;2022-07-04T13:08:52;3.35;;;2.00;;
8909;SDS011;4490;49.072;8.804;2022-07-04T13:11:18;2.28;;;1.83;;
8909;SDS011;4490;49.072;8.804;2022-07-04T13:14:03;2.13;;;1.73;;
8909;SDS011;4490;49.072;8.804;2022-07-04T13:16:29;3.58;;;1.80;;
8909;SDS011;4490;49.072;8.804;2022-07-04T13:18:54;3.03;;;1.70;;
8909;SDS011;4490;49.072;8.804;2022-07-04T13:21:20;2.15;;;1.83;;
8909;SDS011;4490;49.072;8.804;2022-07-04T13:23:45;2.33;;;1.77;;
8909;SDS011;4490;49.072;8.804;2022-07-04T13:26:11;2.75;;;1.83;;
8909;SDS011;4490;49.072;8.804;2022-07-04T13:28:37;3.05;;;1.73;;
8909;SDS011;4490;49.072;8.804;2022-07-04T13:31:03;3.72;;;1.70;;
8909;SDS011;4490;49.072;8.804;2022-07-04T13:33:29;2.58;;;1.70;;
8909;SDS011;4490;49.072;8.804;2022-07-04T13:35:54;2.28;;;1.92;;
8909;SDS011;4490;49.072;8.804;2022-07-04T13:38:20;1.70;;;1.60;;
8909;SDS011;4490;49.072;8.804;2022-07-04T13:40:46;3.92;;;1.65;;
8909;SDS011;4490;49.072;8.804;2022-07-04T13:43:12;3.05;;;1.50;;
8909;SDS011;4490;49.072;8.804;2022-07-04T13:45:38;3.15;;;1.45;;
8909;SDS011;4490;49.072;8.804;2022-07-04T13:48:06;2.88;;;1.60;;
8909;SDS011;4490;49.072;8.804;2022-07-04T13:50:32;2.28;;;1.60;;
8909;SDS011;4490;49.072;8.804;2022-07-04T13:53:00;2.53;;;1.60;;
8909;SDS011;4490;49.072;8.804;2022-07-04T13:55:26;2.13;;;1.48;;
8909;SDS011;4490;49.072;8.804;2022-07-04T13:57:53;1.63;;;1.40;;
8909;SDS011;4490;49.072;8.804;2022-07-04T14:00:19;3.80;;;1.60;;
8909;SDS011;4490;49.072;8.804;2022-07-04T14:02:45;1.70;;;1.60;;
8909;SDS011;4490;49.072;8.804;2022-07-04T14:05:10;2.05;;;1.60;;
8909;SDS011;4490;49.072;8.804;2022-07-04T14:07:36;1.42;;;1.33;;
8909;SDS011;4490;49.072;8.804;2022-07-04T14:10:02;1.85;;;1.40;;
8909;SDS011;4490;49.072;8.804;2022-07-04T14:12:29;1.40;;;1.30;;
8909;SDS011;4490;49.072;8.804;2022-07-04T14:14:55;2.40;;;1.40;;
8909;SDS011;4490;49.072;8.804;2022-07-04T14:17:21;1.80;;;1.58;;
8909;SDS011;4490;49.072;8.804;2022-07-04T14:19:46;1.50;;;1.40;;
8909;SDS011;4490;49.072;8.804;2022-07-04T14:22:12;2.95;;;1.30;;
8909;SDS011;4490;49.072;8.804;2022-07-04T14:24:38;1.80;;;1.45;;
8909;SDS011;4490;49.072;8.804;2022-07-04T14:27:04;5.05;;;1.50;;
8909;SDS011;4490;49.072;8.804;2022-07-04T14:29:29;1.90;;;1.60;;
8909;SDS011;4490;49.072;8.804;2022-07-04T14:31:55;4.53;;;1.70;;
8909;SDS011;4490;49.072;8.804;2022-07-04T14:34:21;2.80;;;1.33;;
8909;SDS011;4490;49.072;8.804;2022-07-04T14:36:47;2.47;;;1.52;;
8909;SDS011;4490;49.072;8.804;2022-07-04T14:39:12;1.90;;;1.40;;
8909;SDS011;4490;49.072;8.804;2022-07-04T14:41:38;2.38;;;1.40;;
8909;SDS011;4490;49.072;8.804;2022-07-04T14:44:04;3.20;;;1.50;;
8909;SDS011;4490;49.072;8.804;2022-07-04T14:46:29;3.20;;;1.40;;
8909;SDS011;4490;49.072;8.804;2022-07-04T14:48:55;3.47;;;1.48;;
8909;SDS011;4490;49.072;8.804;2022-07-04T14:51:22;3.13;;;1.30;;
8909;SDS011;4490;49.072;8.804;2022-07-04T14:53:50;1.65;;;1.48;;
8909;SDS011;4490;49.072;8.804;2022-07-04T14:56:16;3.05;;;1.70;;
8909;SDS011;4490;49.072;8.804;2022-07-04T14:58:42;2.85;;;1.60;;
8909;SDS011;4490;49.072;8.804;2022-07-04T15:01:07;1.85;;;1.65;;
8909;SDS011;4490;49.072;8.804;2022-07-04T15:03:33;2.05;;;1.60;;
8909;SDS011;4490;49.072;8.804;2022-07-04T15:05:59;1.98;;;1.55;;
8909;SDS011;4490;49.072;8.804;2022-07-04T15:08:24;2.90;;;1.40;;
8909;SDS011;4490;49.072;8.804;2022-07-04T15:10:50;3.15;;;1.60;;
8909;SDS011;4490;49.072;8.804;2022-07-04T15:13:16;2.60;;;1.42;;
8909;SDS011;4490;49.072;8.804;2022-07-04T15:15:41;1.70;;;1.60;;
8909;SDS011;4490;49.072;8.804;2022-07-04T15:18:07;2.33;;;1.50;;
8909;SDS011;4490;49.072;8.804;2022-07-04T15:20:33;1.73;;;1.63;;
8909;SDS011;4490;49.072;8.804;2022-07-04T15:23:16;1.65;;;1.52;;
8909;SDS011;4490;49.072;8.804;2022-07-04T15:26:01;3.17;;;1.45;;
8909;SDS011;4490;49.072;8.804;2022-07-04T15:28:27;2.22;;;1.58;;
8909;SDS011;4490;49.072;8.804;2022-07-04T15:30:53;1.50;;;1.40;;
8909;SDS011;4490;49.072;8.804;2022-07-04T15:33:19;1.92;;;1.50;;
8909;SDS011;4490;49.072;8.804;2022-07-04T15:35:45;2.47;;;1.83;;
8909;SDS011;4490;49.072;8.804;2022-07-04T15:38:11;2.30;;;1.48;;
8909;SDS011;4490;49.072;8.804;2022-07-04T15:40:37;3.50;;;1.48;;
8909;SDS011;4490;49.072;8.804;2022-07-04T15:43:05;4.25;;;1.70;;
8909;SDS011;4490;49.072;8.804;2022-07-04T15:45:30;4.57;;;1.50;;
8909;SDS011;4490;49.072;8.804;2022-07-04T15:47:56;2.45;;;1.50;;
8909;SDS011;4490;49.072;8.804;2022-07-04T15:50:21;1.63;;;1.52;;
8909;SDS011;4490;49.072;8.804;2022-07-04T15:52:48;1.63;;;1.30;;
8909;SDS011;4490;49.072;8.804;2022-07-04T15:55:14;1.60;;;1.50;;